sensor_id;sensor_type;location;lat;lon;timestamp;P1;durP1;ratioP1;P2;durP2;ratioP2
8361;SDS011;4218;48.326;14.304;2022-12-07T06:22:47;24.87;;;23.50;;
8361;SDS011;4218;48.326;14.304;2022-12-07T06:25:12;22.93;;;21.47;;
8361;SDS011;4218;48.326;14.304;2022-12-07T06:27:38;22.87;;;21.33;;
8361;SDS011;4218;48.326;14.304;2022-12-07T06:30:03;19.80;;;18.50;;
8361;SDS011;4218;48.326;14.304;2022-12-07T06:32:32;17.37;;;16.50;;
8361;SDS011;4218;48.326;14.304;2022-12-07T06:34:59;19.60;;;18.53;;
8361;SDS011;4218;48.326;14.304;2022-12-07T06:37:25;22.33;;;21.23;;
8361;SDS011;4218;48.326;14.304;2022-12-07T06:39:50;16.77;;;15.97;;
8361;SDS011;4218;48.326;14.304;2022-12-07T06:42:15;17.27;;;16.37;;
8361;SDS011;4218;48.326;14.304;2022-12-07T06:44:41;16.40;;;15.50;;
8361;SDS011;4218;48.326;14.304;2022-12-07T06:47:06;44.85;;;42.58;;
8361;SDS011;4218;48.326;14.304;2022-12-07T06:49:32;30.90;;;29.23;;
8361;SDS011;4218;48.326;14.304;2022-12-07T06:51:58;28.90;;;27.47;;
8361;SDS011;4218;48.326;14.304;2022-12-07T06:54:23;21.23;;;20.07;;
8361;SDS011;4218;48.326;14.304;2022-12-07T06:56:48;22.40;;;21.30;;
8361;SDS011;4218;48.326;14.304;2022-12-07T06:59:14;18.00;;;17.00;;
8361;SDS011;4218;48.326;14.304;2022-12-07T07:01:39;18.80;;;17.90;;
8361;SDS011;4218;48.326;14.304;2022-12-07T07:04:05;40.30;;;38.30;;
8361;SDS011;4218;48.326;14.304;2022-12-07T07:06:31;27.83;;;26.43;;
8361;SDS011;4218;48.326;14.304;2022-12-07T07:08:56;28.87;;;27.40;;
8361;SDS011;4218;48.326;14.304;2022-12-07T07:11:21;17.97;;;16.87;;
8361;SDS011;4218;48.326;14.304;2022-12-07T07:13:47;32.13;;;30.43;;
8361;SDS011;4218;48.326;14.304;2022-12-07T07:16:12;24.47;;;23.10;;
8361;SDS011;4218;48.326;14.304;2022-12-07T07:18:38;23.93;;;22.63;;
8361;SDS011;4218;48.326;14.304;2022-12-07T07:21:03;40.37;;;38.27;;
8361;SDS011;4218;48.326;14.304;2022-12-07T07:23:29;33.20;;;31.23;;
8361;SDS011;4218;48.326;14.304;2022-12-07T07:25:55;33.00;;;31.33;;
8361;SDS011;4218;48.326;14.304;2022-12-07T07:28:20;21.30;;;20.20;;
8361;SDS011;4218;48.326;14.304;2022-12-07T07:30:45;22.83;;;21.57;;
8361;SDS011;4218;48.326;14.304;2022-12-07T07:33:11;30.90;;;29.30;;
8361;SDS011;4218;48.326;14.304;2022-12-07T07:35:37;25.63;;;24.33;;
8361;SDS011;4218;48.326;14.304;2022-12-07T07:38:04;26.20;;;24.67;;
8361;SDS011;4218;48.326;14.304;2022-12-07T07:40:30;22.60;;;20.50;;
8361;SDS011;4218;48.326;14.304;2022-12-07T07:42:56;21.37;;;20.07;;
8361;SDS011;4218;48.326;14.304;2022-12-07T07:45:22;28.17;;;26.70;;
8361;SDS011;4218;48.326;14.304;2022-12-07T07:47:48;86.33;;;82.17;;
8361;SDS011;4218;48.326;14.304;2022-12-07T07:50:15;61.80;;;58.83;;
8361;SDS011;4218;48.326;14.304;2022-12-07T07:52:41;33.87;;;31.93;;
8361;SDS011;4218;48.326;14.304;2022-12-07T07:55:07;95.63;;;91.17;;
8361;SDS011;4218;48.326;14.304;2022-12-07T07:57:33;53.97;;;51.27;;
8361;SDS011;4218;48.326;14.304;2022-12-07T08:00:07;52.33;;;49.67;;
8361;SDS011;4218;48.326;14.304;2022-12-07T08:02:34;52.33;;;49.67;;
8361;SDS011;4218;48.326;14.304;2022-12-07T08:04:59;68.30;;;64.97;;
8361;SDS011;4218;48.326;14.304;2022-12-07T08:07:25;45.07;;;42.83;;
8361;SDS011;4218;48.326;14.304;2022-12-07T08:09:54;33.77;;;32.00;;
8361;SDS011;4218;48.326;14.304;2022-12-07T08:12:19;30.43;;;28.87;;
8361;SDS011;4218;48.326;14.304;2022-12-07T08:14:45;31.57;;;29.83;;
8361;SDS011;4218;48.326;14.304;2022-12-07T08:17:10;35.30;;;33.40;;
8361;SDS011;4218;48.326;14.304;2022-12-07T08:19:35;30.47;;;28.87;;
8361;SDS011;4218;48.326;14.304;2022-12-07T08:22:01;55.70;;;52.53;;
8361;SDS011;4218;48.326;14.304;2022-12-07T08:24:28;26.27;;;24.80;;
8361;SDS011;4218;48.326;14.304;2022-12-07T08:26:53;30.50;;;28.80;;
8361;SDS011;4218;48.326;14.304;2022-12-07T08:29:19;26.13;;;24.63;;
8361;SDS011;4218;48.326;14.304;2022-12-07T08:31:45;33.57;;;31.77;;
8361;SDS011;4218;48.326;14.304;2022-12-07T08:34:11;60.07;;;56.93;;
8361;SDS011;4218;48.326;14.304;2022-12-07T08:36:36;21.90;;;20.73;;
8361;SDS011;4218;48.326;14.304;2022-12-07T08:39:02;47.63;;;45.23;;
8361;SDS011;4218;48.326;14.304;2022-12-07T08:41:28;41.43;;;39.27;;
8361;SDS011;4218;48.326;14.304;2022-12-07T08:43:53;29.23;;;27.70;;
8361;SDS011;4218;48.326;14.304;2022-12-07T08:46:26;24.83;;;23.43;;
8361;SDS011;4218;48.326;14.304;2022-12-07T08:49:02;27.47;;;25.77;;
8361;SDS011;4218;48.326;14.304;2022-12-07T08:51:34;24.17;;;22.77;;
8361;SDS011;4218;48.326;14.304;2022-12-07T08:54:01;18.77;;;17.60;;
8361;SDS011;4218;48.326;14.304;2022-12-07T08:56:30;21.20;;;19.97;;
8361;SDS011;4218;48.326;14.304;2022-12-07T08:58:55;18.53;;;16.80;;
8361;SDS011;4218;48.326;14.304;2022-12-07T09:01:22;14.00;;;13.20;;
8361;SDS011;4218;48.326;14.304;2022-12-07T09:03:48;16.83;;;15.63;;
8361;SDS011;4218;48.326;14.304;2022-12-07T09:06:13;16.33;;;15.17;;
8361;SDS011;4218;48.326;14.304;2022-12-07T09:08:40;18.40;;;17.20;;
8361;SDS011;4218;48.326;14.304;2022-12-07T09:11:08;18.50;;;16.97;;
8361;SDS011;4218;48.326;14.304;2022-12-07T09:13:33;16.17;;;15.20;;
8361;SDS011;4218;48.326;14.304;2022-12-07T09:15:58;14.10;;;13.10;;
8361;SDS011;4218;48.326;14.304;2022-12-07T09:18:24;16.43;;;15.37;;
8361;SDS011;4218;48.326;14.304;2022-12-07T09:20:49;19.60;;;18.40;;
8361;SDS011;4218;48.326;14.304;2022-12-07T09:23:15;18.17;;;17.17;;
8361;SDS011;4218;48.326;14.304;2022-12-07T09:25:41;14.30;;;13.50;;
8361;SDS011;4218;48.326;14.304;2022-12-07T09:28:06;19.07;;;17.77;;
8361;SDS011;4218;48.326;14.304;2022-12-07T09:30:31;20.87;;;19.67;;
8361;SDS011;4218;48.326;14.304;2022-12-07T09:32:57;22.17;;;20.87;;
8361;SDS011;4218;48.326;14.304;2022-12-07T09:35:23;19.30;;;18.20;;
8361;SDS011;4218;48.326;14.304;2022-12-07T09:37:49;20.93;;;19.73;;
8361;SDS011;4218;48.326;14.304;2022-12-07T09:40:15;17.23;;;16.20;;
8361;SDS011;4218;48.326;14.304;2022-12-07T09:42:43;25.30;;;23.57;;
8361;SDS011;4218;48.326;14.304;2022-12-07T09:45:13;21.80;;;20.57;;
8361;SDS011;4218;48.326;14.304;2022-12-07T09:47:42;18.77;;;17.70;;
8361;SDS011;4218;48.326;14.304;2022-12-07T09:50:12;20.17;;;19.17;;
8361;SDS011;4218;48.326;14.304;2022-12-07T09:52:39;16.57;;;15.33;;
8361;SDS011;4218;48.326;14.304;2022-12-07T09:55:10;16.57;;;15.50;;
8361;SDS011;4218;48.326;14.304;2022-12-07T09:57:37;15.90;;;14.80;;
8361;SDS011;4218;48.326;14.304;2022-12-07T10:00:04;13.77;;;12.87;;
8361;SDS011;4218;48.326;14.304;2022-12-07T10:02:39;13.13;;;12.37;;
8361;SDS011;4218;48.326;14.304;2022-12-07T10:05:07;13.23;;;12.30;;
8361;SDS011;4218;48.326;14.304;2022-12-07T10:07:38;13.67;;;12.87;;
8361;SDS011;4218;48.326;14.304;2022-12-07T10:10:04;12.63;;;11.93;;
8361;SDS011;4218;48.326;14.304;2022-12-07T10:12:52;11.47;;;10.60;;
8361;SDS011;4218;48.326;14.304;2022-12-07T10:15:19;14.07;;;12.70;;
8361;SDS011;4218;48.326;14.304;2022-12-07T10:17:48;10.80;;;10.13;;
8361;SDS011;4218;48.326;14.304;2022-12-07T10:25:37;14.47;;;13.57;;
8361;SDS011;4218;48.326;14.304;2022-12-07T10:30:32;18.67;;;17.67;;
8361;SDS011;4218;48.326;14.304;2022-12-07T10:32:59;14.50;;;13.60;;
8361;SDS011;4218;48.326;14.304;2022-12-07T10:35:28;16.93;;;15.43;;
8361;SDS011;4218;48.326;14.304;2022-12-07T10:37:56;15.50;;;14.60;;
8361;SDS011;4218;48.326;14.304;2022-12-07T10:40:33;15.43;;;14.43;;
8361;SDS011;4218;48.326;14.304;2022-12-07T10:43:00;17.73;;;16.23;;
8361;SDS011;4218;48.326;14.304;2022-12-07T10:45:26;11.90;;;11.20;;
8361;SDS011;4218;48.326;14.304;2022-12-07T10:47:54;15.03;;;13.83;;
8361;SDS011;4218;48.326;14.304;2022-12-07T10:56:25;11.27;;;10.57;;
8361;SDS011;4218;48.326;14.304;2022-12-07T11:02:11;13.60;;;12.67;;
8361;SDS011;4218;48.326;14.304;2022-12-07T11:10:31;13.77;;;12.77;;
8361;SDS011;4218;48.326;14.304;2022-12-07T11:13:26;15.63;;;14.43;;
8361;SDS011;4218;48.326;14.304;2022-12-07T11:16:08;18.10;;;17.07;;
8361;SDS011;4218;48.326;14.304;2022-12-07T11:24:10;15.17;;;14.10;;
8361;SDS011;4218;48.326;14.304;2022-12-07T11:35:18;12.63;;;11.43;;
8361;SDS011;4218;48.326;14.304;2022-12-07T11:37:57;15.87;;;14.77;;
8361;SDS011;4218;48.326;14.304;2022-12-07T11:40:27;15.67;;;14.17;;
8361;SDS011;4218;48.326;14.304;2022-12-07T11:43:00;15.93;;;14.67;;
8361;SDS011;4218;48.326;14.304;2022-12-07T11:45:34;15.03;;;14.23;;
8361;SDS011;4218;48.326;14.304;2022-12-07T11:48:03;13.10;;;12.40;;
8361;SDS011;4218;48.326;14.304;2022-12-07T12:03:52;12.90;;;12.00;;
8361;SDS011;4218;48.326;14.304;2022-12-07T12:06:20;13.17;;;12.07;;
8361;SDS011;4218;48.326;14.304;2022-12-07T12:08:59;12.47;;;11.87;;
8361;SDS011;4218;48.326;14.304;2022-12-07T12:20:03;13.00;;;12.17;;
8361;SDS011;4218;48.326;14.304;2022-12-07T12:25:30;16.70;;;15.47;;
8361;SDS011;4218;48.326;14.304;2022-12-07T12:28:01;12.53;;;11.73;;
8361;SDS011;4218;48.326;14.304;2022-12-07T12:30:34;13.37;;;12.67;;
8361;SDS011;4218;48.326;14.304;2022-12-07T12:33:20;14.03;;;13.23;;
8361;SDS011;4218;48.326;14.304;2022-12-07T13:18:46;15.17;;;14.50;;
8361;SDS011;4218;48.326;14.304;2022-12-07T13:23:38;16.40;;;15.60;;
8361;SDS011;4218;48.326;14.304;2022-12-07T13:28:50;15.17;;;14.37;;
8361;SDS011;4218;48.326;14.304;2022-12-07T13:31:35;15.77;;;15.17;;
8361;SDS011;4218;48.326;14.304;2022-12-07T13:34:04;17.57;;;16.77;;
8361;SDS011;4218;48.326;14.304;2022-12-07T13:36:50;18.30;;;17.50;;
8361;SDS011;4218;48.326;14.304;2022-12-07T13:39:17;19.27;;;18.47;;
8361;SDS011;4218;48.326;14.304;2022-12-07T13:41:48;20.83;;;19.93;;
8361;SDS011;4218;48.326;14.304;2022-12-07T13:44:16;20.33;;;19.40;;
8361;SDS011;4218;48.326;14.304;2022-12-07T13:49:18;17.00;;;15.87;;
8361;SDS011;4218;48.326;14.304;2022-12-07T13:51:48;21.43;;;20.37;;
8361;SDS011;4218;48.326;14.304;2022-12-07T13:54:14;18.70;;;17.83;;
8361;SDS011;4218;48.326;14.304;2022-12-07T13:56:40;20.80;;;19.70;;
8361;SDS011;4218;48.326;14.304;2022-12-07T13:59:10;30.97;;;29.17;;
8361;SDS011;4218;48.326;14.304;2022-12-07T14:01:48;27.53;;;26.00;;
8361;SDS011;4218;48.326;14.304;2022-12-07T14:04:16;31.43;;;29.63;;
8361;SDS011;4218;48.326;14.304;2022-12-07T14:06:54;31.63;;;30.07;;
8361;SDS011;4218;48.326;14.304;2022-12-07T14:09:23;24.23;;;23.08;;
8361;SDS011;4218;48.326;14.304;2022-12-07T14:11:51;30.13;;;28.75;;
8361;SDS011;4218;48.326;14.304;2022-12-07T14:14:23;33.75;;;32.03;;
8361;SDS011;4218;48.326;14.304;2022-12-07T14:16:58;34.75;;;32.95;;
8361;SDS011;4218;48.326;14.304;2022-12-07T14:19:40;38.50;;;36.70;;
8361;SDS011;4218;48.326;14.304;2022-12-07T14:22:21;46.95;;;44.70;;
8361;SDS011;4218;48.326;14.304;2022-12-07T14:24:50;35.05;;;33.30;;
8361;SDS011;4218;48.326;14.304;2022-12-07T14:27:19;41.65;;;39.55;;
8361;SDS011;4218;48.326;14.304;2022-12-07T14:29:47;45.17;;;42.78;;
8361;SDS011;4218;48.326;14.304;2022-12-07T14:32:23;40.65;;;38.55;;
8361;SDS011;4218;48.326;14.304;2022-12-07T14:35:00;35.78;;;34.10;;
8361;SDS011;4218;48.326;14.304;2022-12-07T14:37:28;40.65;;;38.75;;
8361;SDS011;4218;48.326;14.304;2022-12-07T14:39:54;34.88;;;33.00;;
8361;SDS011;4218;48.326;14.304;2022-12-07T14:42:20;28.67;;;27.15;;
8361;SDS011;4218;48.326;14.304;2022-12-07T14:44:48;32.50;;;30.65;;
8361;SDS011;4218;48.326;14.304;2022-12-07T14:47:13;30.80;;;29.37;;
8361;SDS011;4218;48.326;14.304;2022-12-07T14:49:39;39.42;;;37.60;;
8361;SDS011;4218;48.326;14.304;2022-12-07T14:52:05;43.20;;;41.20;;
8361;SDS011;4218;48.326;14.304;2022-12-07T14:54:35;45.08;;;43.03;;
8361;SDS011;4218;48.326;14.304;2022-12-07T14:57:01;34.67;;;33.03;;
8361;SDS011;4218;48.326;14.304;2022-12-07T14:59:26;32.22;;;30.58;;
8361;SDS011;4218;48.326;14.304;2022-12-07T15:01:52;31.42;;;29.67;;
8361;SDS011;4218;48.326;14.304;2022-12-07T15:04:17;28.13;;;26.83;;
8361;SDS011;4218;48.326;14.304;2022-12-07T15:06:53;31.05;;;29.60;;
8361;SDS011;4218;48.326;14.304;2022-12-07T15:09:20;41.55;;;39.65;;
8361;SDS011;4218;48.326;14.304;2022-12-07T15:11:45;34.63;;;33.00;;
8361;SDS011;4218;48.326;14.304;2022-12-07T15:14:11;44.53;;;42.40;;
8361;SDS011;4218;48.326;14.304;2022-12-07T15:16:38;41.58;;;39.70;;
8361;SDS011;4218;48.326;14.304;2022-12-07T15:19:05;37.30;;;35.33;;
8361;SDS011;4218;48.326;14.304;2022-12-07T15:21:31;30.52;;;29.10;;
8361;SDS011;4218;48.326;14.304;2022-12-07T15:23:56;30.70;;;29.20;;
8361;SDS011;4218;48.326;14.304;2022-12-07T15:26:22;34.40;;;32.83;;
8361;SDS011;4218;48.326;14.304;2022-12-07T15:28:47;38.25;;;36.33;;
8361;SDS011;4218;48.326;14.304;2022-12-07T15:31:13;29.95;;;28.55;;
8361;SDS011;4218;48.326;14.304;2022-12-07T15:33:40;34.80;;;33.13;;
8361;SDS011;4218;48.326;14.304;2022-12-07T15:36:05;33.60;;;31.73;;
8361;SDS011;4218;48.326;14.304;2022-12-07T15:38:31;24.63;;;23.52;;
8361;SDS011;4218;48.326;14.304;2022-12-07T15:40:56;26.25;;;25.08;;
8361;SDS011;4218;48.326;14.304;2022-12-07T15:43:22;28.35;;;26.95;;
8361;SDS011;4218;48.326;14.304;2022-12-07T15:46:06;38.35;;;36.42;;
8361;SDS011;4218;48.326;14.304;2022-12-07T15:48:31;38.67;;;36.67;;
8361;SDS011;4218;48.326;14.304;2022-12-07T15:51:06;33.63;;;31.98;;
8361;SDS011;4218;48.326;14.304;2022-12-07T15:53:33;31.52;;;30.13;;
8361;SDS011;4218;48.326;14.304;2022-12-07T15:55:59;28.40;;;27.13;;
8361;SDS011;4218;48.326;14.304;2022-12-07T15:58:25;46.67;;;44.45;;
8361;SDS011;4218;48.326;14.304;2022-12-07T16:00:51;56.58;;;53.95;;
8361;SDS011;4218;48.326;14.304;2022-12-07T16:03:16;51.63;;;49.22;;
8361;SDS011;4218;48.326;14.304;2022-12-07T16:05:41;52.97;;;50.53;;
8361;SDS011;4218;48.326;14.304;2022-12-07T16:08:07;53.55;;;51.05;;
8361;SDS011;4218;48.326;14.304;2022-12-07T16:10:32;51.83;;;49.50;;
8361;SDS011;4218;48.326;14.304;2022-12-07T16:12:58;44.55;;;42.50;;
8361;SDS011;4218;48.326;14.304;2022-12-07T16:15:23;42.45;;;40.42;;
8361;SDS011;4218;48.326;14.304;2022-12-07T16:17:50;29.08;;;27.73;;
8361;SDS011;4218;48.326;14.304;2022-12-07T16:20:16;29.20;;;27.90;;
8361;SDS011;4218;48.326;14.304;2022-12-07T16:22:41;32.33;;;30.77;;
8361;SDS011;4218;48.326;14.304;2022-12-07T16:25:07;36.53;;;34.83;;
8361;SDS011;4218;48.326;14.304;2022-12-07T16:27:33;31.00;;;29.52;;
8361;SDS011;4218;48.326;14.304;2022-12-07T16:29:59;27.80;;;26.55;;
8361;SDS011;4218;48.326;14.304;2022-12-07T16:32:24;34.08;;;32.22;;
8361;SDS011;4218;48.326;14.304;2022-12-07T16:34:49;35.03;;;33.35;;
8361;SDS011;4218;48.326;14.304;2022-12-07T16:37:15;34.78;;;32.83;;
8361;SDS011;4218;48.326;14.304;2022-12-07T16:39:40;32.78;;;30.88;;
8361;SDS011;4218;48.326;14.304;2022-12-07T16:42:05;31.75;;;30.20;;
8361;SDS011;4218;48.326;14.304;2022-12-07T16:44:31;38.83;;;36.92;;
8361;SDS011;4218;48.326;14.304;2022-12-07T16:46:56;45.55;;;43.50;;
8361;SDS011;4218;48.326;14.304;2022-12-07T16:49:22;33.83;;;32.30;;
8361;SDS011;4218;48.326;14.304;2022-12-07T16:51:49;32.03;;;30.48;;
8361;SDS011;4218;48.326;14.304;2022-12-07T16:54:15;34.70;;;33.10;;
8361;SDS011;4218;48.326;14.304;2022-12-07T16:56:40;37.65;;;35.95;;
8361;SDS011;4218;48.326;14.304;2022-12-07T16:59:06;40.35;;;38.45;;
8361;SDS011;4218;48.326;14.304;2022-12-07T17:01:32;42.42;;;40.40;;
8361;SDS011;4218;48.326;14.304;2022-12-07T17:03:59;47.75;;;45.58;;
8361;SDS011;4218;48.326;14.304;2022-12-07T17:06:26;50.92;;;48.60;;
8361;SDS011;4218;48.326;14.304;2022-12-07T17:08:52;26.67;;;25.38;;
8361;SDS011;4218;48.326;14.304;2022-12-07T17:11:28;26.15;;;24.85;;
8361;SDS011;4218;48.326;14.304;2022-12-07T17:13:57;36.93;;;35.23;;
8361;SDS011;4218;48.326;14.304;2022-12-07T17:16:41;26.17;;;25.07;;
8361;SDS011;4218;48.326;14.304;2022-12-07T17:19:07;22.90;;;21.83;;
8361;SDS011;4218;48.326;14.304;2022-12-07T17:21:34;19.20;;;18.30;;
8361;SDS011;4218;48.326;14.304;2022-12-07T17:24:00;20.40;;;19.50;;
8361;SDS011;4218;48.326;14.304;2022-12-07T17:26:28;27.53;;;26.23;;
8361;SDS011;4218;48.326;14.304;2022-12-07T17:28:54;30.70;;;29.30;;
8361;SDS011;4218;48.326;14.304;2022-12-07T17:31:21;39.67;;;37.87;;
8361;SDS011;4218;48.326;14.304;2022-12-07T17:33:47;59.83;;;57.13;;
8361;SDS011;4218;48.326;14.304;2022-12-07T17:38:40;56.43;;;53.90;;
8361;SDS011;4218;48.326;14.304;2022-12-07T17:41:12;53.83;;;51.30;;
8361;SDS011;4218;48.326;14.304;2022-12-07T17:43:59;46.73;;;44.53;;
8361;SDS011;4218;48.326;14.304;2022-12-07T17:46:25;48.30;;;46.00;;
8361;SDS011;4218;48.326;14.304;2022-12-07T17:48:53;45.90;;;43.80;;
8361;SDS011;4218;48.326;14.304;2022-12-07T17:51:19;28.57;;;27.20;;
8361;SDS011;4218;48.326;14.304;2022-12-07T17:54:03;34.77;;;33.03;;
8361;SDS011;4218;48.326;14.304;2022-12-07T17:56:28;30.47;;;29.07;;
8361;SDS011;4218;48.326;14.304;2022-12-07T17:58:53;29.93;;;28.57;;
8361;SDS011;4218;48.326;14.304;2022-12-07T18:01:19;28.80;;;27.50;;
8361;SDS011;4218;48.326;14.304;2022-12-07T18:03:44;35.63;;;34.03;;
8361;SDS011;4218;48.326;14.304;2022-12-07T18:06:09;34.97;;;33.33;;
8361;SDS011;4218;48.326;14.304;2022-12-07T18:08:35;35.33;;;33.67;;
8361;SDS011;4218;48.326;14.304;2022-12-07T18:11:02;39.27;;;37.53;;
8361;SDS011;4218;48.326;14.304;2022-12-07T18:13:29;37.57;;;35.83;;
8361;SDS011;4218;48.326;14.304;2022-12-07T18:16:22;39.80;;;37.93;;
8361;SDS011;4218;48.326;14.304;2022-12-07T18:18:48;33.90;;;32.40;;
8361;SDS011;4218;48.326;14.304;2022-12-07T18:21:15;33.80;;;32.23;;
8361;SDS011;4218;48.326;14.304;2022-12-07T18:23:43;31.50;;;30.10;;
8361;SDS011;4218;48.326;14.304;2022-12-07T18:26:10;33.87;;;32.30;;
8361;SDS011;4218;48.326;14.304;2022-12-07T18:28:37;32.97;;;31.37;;
8361;SDS011;4218;48.326;14.304;2022-12-07T18:31:03;25.47;;;24.27;;
8361;SDS011;4218;48.326;14.304;2022-12-07T18:33:28;31.90;;;30.47;;
8361;SDS011;4218;48.326;14.304;2022-12-07T18:35:54;23.17;;;22.13;;
8361;SDS011;4218;48.326;14.304;2022-12-07T18:38:19;30.97;;;29.33;;
8361;SDS011;4218;48.326;14.304;2022-12-07T18:40:44;26.87;;;25.67;;
8361;SDS011;4218;48.326;14.304;2022-12-07T18:43:10;33.77;;;32.17;;
8361;SDS011;4218;48.326;14.304;2022-12-07T18:45:39;31.53;;;30.13;;
8361;SDS011;4218;48.326;14.304;2022-12-07T18:48:07;32.70;;;31.23;;
8361;SDS011;4218;48.326;14.304;2022-12-07T18:50:34;31.60;;;30.10;;
8361;SDS011;4218;48.326;14.304;2022-12-07T18:53:01;28.20;;;26.90;;
8361;SDS011;4218;48.326;14.304;2022-12-07T18:55:27;27.60;;;26.27;;
8361;SDS011;4218;48.326;14.304;2022-12-07T18:57:54;30.63;;;29.23;;
8361;SDS011;4218;48.326;14.304;2022-12-07T19:00:21;23.97;;;22.80;;
8361;SDS011;4218;48.326;14.304;2022-12-07T19:02:47;26.30;;;25.00;;
8361;SDS011;4218;48.326;14.304;2022-12-07T19:05:13;26.13;;;24.93;;
8361;SDS011;4218;48.326;14.304;2022-12-07T19:07:39;26.67;;;25.43;;
8361;SDS011;4218;48.326;14.304;2022-12-07T19:10:04;26.27;;;25.07;;
8361;SDS011;4218;48.326;14.304;2022-12-07T19:12:32;26.33;;;25.13;;
8361;SDS011;4218;48.326;14.304;2022-12-07T19:14:58;26.13;;;24.90;;
8361;SDS011;4218;48.326;14.304;2022-12-07T19:17:23;24.10;;;23.00;;
8361;SDS011;4218;48.326;14.304;2022-12-07T19:19:48;27.33;;;26.13;;
8361;SDS011;4218;48.326;14.304;2022-12-07T19:22:18;28.43;;;27.13;;
8361;SDS011;4218;48.326;14.304;2022-12-07T19:24:46;30.17;;;28.83;;
8361;SDS011;4218;48.326;14.304;2022-12-07T19:27:13;28.37;;;27.03;;
8361;SDS011;4218;48.326;14.304;2022-12-07T19:29:40;29.63;;;28.20;;
8361;SDS011;4218;48.326;14.304;2022-12-07T19:32:06;29.83;;;28.47;;
8361;SDS011;4218;48.326;14.304;2022-12-07T19:34:35;29.33;;;28.03;;
8361;SDS011;4218;48.326;14.304;2022-12-07T19:37:02;28.93;;;27.37;;
8361;SDS011;4218;48.326;14.304;2022-12-07T19:39:27;31.53;;;30.13;;
8361;SDS011;4218;48.326;14.304;2022-12-07T19:41:54;31.60;;;30.20;;
8361;SDS011;4218;48.326;14.304;2022-12-07T19:44:20;34.33;;;32.67;;
8361;SDS011;4218;48.326;14.304;2022-12-07T19:46:49;33.40;;;31.93;;
8361;SDS011;4218;48.326;14.304;2022-12-07T19:49:16;36.77;;;35.10;;
8361;SDS011;4218;48.326;14.304;2022-12-07T19:51:43;34.63;;;33.07;;
8361;SDS011;4218;48.326;14.304;2022-12-07T19:54:10;33.67;;;32.17;;
8361;SDS011;4218;48.326;14.304;2022-12-07T19:56:36;35.40;;;33.80;;
8361;SDS011;4218;48.326;14.304;2022-12-07T19:59:02;33.00;;;31.50;;
8361;SDS011;4218;48.326;14.304;2022-12-07T20:01:27;23.57;;;22.53;;
8361;SDS011;4218;48.326;14.304;2022-12-07T20:03:53;23.50;;;22.43;;
8361;SDS011;4218;48.326;14.304;2022-12-07T20:06:19;25.20;;;24.10;;
8361;SDS011;4218;48.326;14.304;2022-12-07T20:08:46;37.90;;;36.20;;
8361;SDS011;4218;48.326;14.304;2022-12-07T20:11:12;36.70;;;34.97;;
8361;SDS011;4218;48.326;14.304;2022-12-07T20:13:58;30.70;;;29.20;;
8361;SDS011;4218;48.326;14.304;2022-12-07T20:16:23;30.87;;;29.50;;
8361;SDS011;4218;48.326;14.304;2022-12-07T20:18:49;30.30;;;28.90;;
8361;SDS011;4218;48.326;14.304;2022-12-07T20:21:15;37.23;;;35.57;;
8361;SDS011;4218;48.326;14.304;2022-12-07T20:23:40;38.93;;;37.20;;
8361;SDS011;4218;48.326;14.304;2022-12-07T20:26:06;42.50;;;40.57;;
8361;SDS011;4218;48.326;14.304;2022-12-07T20:28:34;39.60;;;37.83;;
8361;SDS011;4218;48.326;14.304;2022-12-07T20:30:59;44.17;;;42.23;;
8361;SDS011;4218;48.326;14.304;2022-12-07T20:33:25;43.67;;;41.67;;
8361;SDS011;4218;48.326;14.304;2022-12-07T20:35:50;37.80;;;36.10;;
8361;SDS011;4218;48.326;14.304;2022-12-07T20:38:15;51.83;;;49.53;;
8361;SDS011;4218;48.326;14.304;2022-12-07T20:40:48;37.90;;;36.20;;
8361;SDS011;4218;48.326;14.304;2022-12-07T20:43:14;36.03;;;34.43;;
8361;SDS011;4218;48.326;14.304;2022-12-07T20:45:44;39.60;;;37.70;;
8361;SDS011;4218;48.326;14.304;2022-12-07T20:48:10;31.70;;;30.20;;
8361;SDS011;4218;48.326;14.304;2022-12-07T20:50:35;40.07;;;38.13;;
8361;SDS011;4218;48.326;14.304;2022-12-07T20:53:01;44.43;;;42.43;;
8361;SDS011;4218;48.326;14.304;2022-12-07T20:55:26;33.40;;;31.90;;
8361;SDS011;4218;48.326;14.304;2022-12-07T20:57:51;36.47;;;34.77;;
8361;SDS011;4218;48.326;14.304;2022-12-07T21:00:17;36.63;;;34.97;;
8361;SDS011;4218;48.326;14.304;2022-12-07T21:02:42;32.70;;;31.27;;
8361;SDS011;4218;48.326;14.304;2022-12-07T21:05:08;31.83;;;30.43;;
8361;SDS011;4218;48.326;14.304;2022-12-07T21:07:33;35.47;;;33.87;;
8361;SDS011;4218;48.326;14.304;2022-12-07T21:10:00;32.30;;;30.80;;
8361;SDS011;4218;48.326;14.304;2022-12-07T21:12:27;35.27;;;33.67;;
8361;SDS011;4218;48.326;14.304;2022-12-07T21:14:53;31.37;;;29.97;;
8361;SDS011;4218;48.326;14.304;2022-12-07T21:17:18;30.93;;;29.53;;
8361;SDS011;4218;48.326;14.304;2022-12-07T21:19:43;29.73;;;28.43;;
8361;SDS011;4218;48.326;14.304;2022-12-07T21:22:09;28.73;;;27.50;;
8361;SDS011;4218;48.326;14.304;2022-12-07T21:24:34;33.27;;;31.77;;
8361;SDS011;4218;48.326;14.304;2022-12-07T21:27:01;30.43;;;29.07;;
8361;SDS011;4218;48.326;14.304;2022-12-07T21:29:27;31.50;;;30.07;;
8361;SDS011;4218;48.326;14.304;2022-12-07T21:31:52;31.53;;;30.13;;
8361;SDS011;4218;48.326;14.304;2022-12-07T21:34:17;30.13;;;28.83;;
8361;SDS011;4218;48.326;14.304;2022-12-07T21:36:43;31.43;;;30.03;;
8361;SDS011;4218;48.326;14.304;2022-12-07T21:39:09;32.53;;;31.13;;
8361;SDS011;4218;48.326;14.304;2022-12-07T21:41:34;31.23;;;29.83;;
8361;SDS011;4218;48.326;14.304;2022-12-07T21:44:00;32.47;;;30.97;;
8361;SDS011;4218;48.326;14.304;2022-12-07T21:46:28;31.60;;;30.20;;
8361;SDS011;4218;48.326;14.304;2022-12-07T21:48:55;34.43;;;32.83;;
8361;SDS011;4218;48.326;14.304;2022-12-07T21:51:24;31.67;;;30.13;;
8361;SDS011;4218;48.326;14.304;2022-12-07T21:53:52;32.40;;;31.00;;
8361;SDS011;4218;48.326;14.304;2022-12-07T21:56:19;32.77;;;31.27;;
8361;SDS011;4218;48.326;14.304;2022-12-07T21:58:47;33.50;;;31.97;;
8361;SDS011;4218;48.326;14.304;2022-12-07T22:01:23;32.47;;;30.97;;
8361;SDS011;4218;48.326;14.304;2022-12-07T22:03:50;39.03;;;37.30;;
8361;SDS011;4218;48.326;14.304;2022-12-07T22:06:16;35.63;;;34.03;;
8361;SDS011;4218;48.326;14.304;2022-12-07T22:08:43;36.97;;;35.33;;
8361;SDS011;4218;48.326;14.304;2022-12-07T22:11:09;30.87;;;29.47;;
8361;SDS011;4218;48.326;14.304;2022-12-07T22:13:39;29.50;;;28.20;;
8361;SDS011;4218;48.326;14.304;2022-12-07T22:16:24;26.87;;;25.63;;
8361;SDS011;4218;48.326;14.304;2022-12-07T22:18:53;26.27;;;24.87;;
8361;SDS011;4218;48.326;14.304;2022-12-07T22:21:19;26.07;;;24.87;;
8361;SDS011;4218;48.326;14.304;2022-12-07T22:23:45;28.37;;;27.17;;
8361;SDS011;4218;48.326;14.304;2022-12-07T22:26:11;23.83;;;22.83;;
8361;SDS011;4218;48.326;14.304;2022-12-07T22:28:39;22.53;;;21.50;;
8361;SDS011;4218;48.326;14.304;2022-12-07T22:31:05;21.60;;;20.60;;
8361;SDS011;4218;48.326;14.304;2022-12-07T22:33:32;21.00;;;20.10;;
8361;SDS011;4218;48.326;14.304;2022-12-07T22:35:58;19.97;;;19.07;;
8361;SDS011;4218;48.326;14.304;2022-12-07T22:38:24;20.80;;;19.90;;
8361;SDS011;4218;48.326;14.304;2022-12-07T22:40:49;20.17;;;19.27;;
8361;SDS011;4218;48.326;14.304;2022-12-07T22:43:14;22.73;;;21.73;;
8361;SDS011;4218;48.326;14.304;2022-12-07T22:45:40;19.83;;;18.97;;
8361;SDS011;4218;48.326;14.304;2022-12-07T22:48:06;19.57;;;18.73;;
8361;SDS011;4218;48.326;14.304;2022-12-07T22:50:32;18.70;;;17.93;;
8361;SDS011;4218;48.326;14.304;2022-12-07T22:52:58;18.57;;;17.73;;